createdAt,value
2022-12-05T00:01:55.043Z,4.03
2022-12-05T00:04:22.635Z,2.58
2022-12-05T00:06:50.399Z,3.65
2022-12-05T00:09:19.223Z,2.45
2022-12-05T00:11:47.056Z,3.75
2022-12-05T00:14:17.697Z,2.78
2022-12-05T00:16:45.693Z,2.25
2022-12-05T00:19:14.967Z,2.85
2022-12-05T00:21:44.171Z,2.80
2022-12-05T00:24:13.462Z,2.58
2022-12-05T00:26:42.574Z,2.80
2022-12-05T00:29:10.095Z,3.08
2022-12-05T00:31:37.695Z,2.50
2022-12-05T00:34:05.979Z,2.50
2022-12-05T00:36:34.722Z,3.30
2022-12-05T00:39:03.952Z,3.53
2022-12-05T00:41:31.517Z,3.38
2022-12-05T00:44:01.023Z,3.97
2022-12-05T00:46:29.866Z,2.90
2022-12-05T00:48:58.214Z,3.65
2022-12-05T00:51:27.141Z,3.20
2022-12-05T00:53:55.357Z,2.97
2022-12-05T00:56:23.553Z,3.50
2022-12-05T00:58:51.793Z,2.72
2022-12-05T01:01:21.718Z,2.88
2022-12-05T01:03:50.516Z,3.92
2022-12-05T01:06:18.429Z,2.42
2022-12-05T01:08:47.558Z,2.92
2022-12-05T01:11:16.166Z,2.40
2022-12-05T01:13:43.863Z,3.35
2022-12-05T01:16:15.048Z,2.20
2022-12-05T01:18:44.452Z,3.65
2022-12-05T01:21:13.098Z,2.03
2022-12-05T01:23:40.583Z,3.60
2022-12-05T01:26:11.185Z,3.75
2022-12-05T01:28:39.043Z,3.60
2022-12-05T01:31:08.066Z,3.25
2022-12-05T01:33:36.113Z,3.20
2022-12-05T01:36:05.523Z,3.65
2022-12-05T01:38:33.109Z,4.13
2022-12-05T01:41:02.310Z,4.00
2022-12-05T01:43:33.987Z,3.13
2022-12-05T01:46:01.652Z,5.22
2022-12-05T01:48:37.150Z,2.95
2022-12-05T01:51:08.011Z,3.38
2022-12-05T01:53:36.168Z,3.78
2022-12-05T01:56:04.727Z,4.32
2022-12-05T01:58:34.951Z,3.60
2022-12-05T02:01:03.440Z,3.53
2022-12-05T02:03:31.056Z,3.60
2022-12-05T02:05:59.712Z,3.58
2022-12-05T02:08:30.145Z,4.22
2022-12-05T02:10:58.487Z,4.15
2022-12-05T02:13:40.073Z,4.03
2022-12-05T02:16:14.160Z,3.85
2022-12-05T02:18:48.124Z,3.88
2022-12-05T02:21:34.597Z,3.33
2022-12-05T02:24:14.404Z,4.47
2022-12-05T02:26:50.079Z,2.13
2022-12-05T02:29:27.469Z,3.97
2022-12-05T02:32:07.262Z,4.28
2022-12-05T02:34:37.180Z,4.78
2022-12-05T02:37:09.389Z,3.60
2022-12-05T02:39:41.965Z,4.15
2022-12-05T02:42:11.147Z,4.70
2022-12-05T02:44:46.018Z,3.95
2022-12-05T02:47:16.399Z,4.60
2022-12-05T02:49:44.389Z,4.60
2022-12-05T02:52:14.747Z,4.35
2022-12-05T02:54:44.011Z,3.70
2022-12-05T02:57:12.531Z,3.13
2022-12-05T02:59:40.158Z,3.20
2022-12-05T03:02:09.106Z,3.08
2022-12-05T03:04:38.570Z,3.78
2022-12-05T03:07:07.601Z,3.08
2022-12-05T03:09:36.426Z,3.88
2022-12-05T03:12:07.642Z,3.53
2022-12-05T03:14:37.921Z,3.00
2022-12-05T03:17:08.735Z,3.28
2022-12-05T03:19:44.067Z,3.85
2022-12-05T03:22:16.791Z,3.50
2022-12-05T03:24:44.327Z,3.08
2022-12-05T03:27:17.453Z,3.78
2022-12-05T03:29:51.009Z,3.00
2022-12-05T03:32:21.685Z,4.20
2022-12-05T03:34:53.470Z,3.33
2022-12-05T03:37:26.329Z,3.70
2022-12-05T03:39:58.425Z,4.95
2022-12-05T03:42:29.980Z,3.50
2022-12-05T03:45:00.562Z,4.70
2022-12-05T03:47:32.106Z,3.60
2022-12-05T03:50:02.365Z,4.00
2022-12-05T03:52:45.797Z,3.60
2022-12-05T03:55:23.729Z,4.45
2022-12-05T03:57:53.644Z,3.03
2022-12-05T04:00:22.403Z,4.05
2022-12-05T04:02:53.143Z,3.65
2022-12-05T04:05:22.194Z,3.95
2022-12-05T04:07:53.546Z,3.63
2022-12-05T04:10:22.957Z,3.42
2022-12-05T04:12:52.844Z,4.22
2022-12-05T04:15:22.523Z,3.80
2022-12-05T04:17:53.783Z,4.68
2022-12-05T04:20:40.721Z,2.92
2022-12-05T04:23:09.797Z,5.22
2022-12-05T04:25:37.401Z,2.83
2022-12-05T04:28:10.856Z,4.50
2022-12-05T04:30:41.475Z,3.35
2022-12-05T04:33:11.426Z,4.28
2022-12-05T04:35:41.313Z,4.63
2022-12-05T04:38:12.789Z,3.53
2022-12-05T04:40:42.780Z,4.30
2022-12-05T04:43:10.786Z,3.85
2022-12-05T04:45:39.536Z,4.10
2022-12-05T04:48:11.791Z,3.97
2022-12-05T04:50:40.064Z,4.60
2022-12-05T04:53:07.761Z,4.30
2022-12-05T04:55:38.387Z,3.35
2022-12-05T04:58:08.572Z,4.53
2022-12-05T05:00:39.101Z,3.50
2022-12-05T05:03:08.457Z,4.07
2022-12-05T05:05:36.870Z,4.38
2022-12-05T05:08:04.488Z,4.50
2022-12-05T05:10:34.485Z,4.90
2022-12-05T05:13:03.383Z,4.15
2022-12-05T05:15:30.822Z,4.68
2022-12-05T05:17:58.384Z,4.22
2022-12-05T05:20:27.141Z,3.97
2022-12-05T05:22:55.185Z,4.32
2022-12-05T05:25:26.593Z,5.18
2022-12-05T05:27:55.108Z,4.80
2022-12-05T05:30:24.566Z,5.07
2022-12-05T05:32:52.151Z,4.20
2022-12-05T05:35:20.360Z,6.05
2022-12-05T05:37:47.923Z,5.03
2022-12-05T05:40:15.541Z,6.32
2022-12-05T05:42:43.551Z,5.07
2022-12-05T05:45:11.879Z,6.50
2022-12-05T05:47:40.754Z,5.57
2022-12-05T05:50:09.718Z,6.28
2022-12-05T05:52:39.908Z,6.35
2022-12-05T05:58:53.347Z,5.55
2022-12-05T06:01:21.259Z,5.32
2022-12-05T06:03:50.808Z,5.47
2022-12-05T06:06:19.053Z,6.68
2022-12-05T06:08:46.719Z,5.72
2022-12-05T06:11:17.820Z,6.53
2022-12-05T06:13:50.805Z,6.13
2022-12-05T06:16:19.121Z,6.22
2022-12-05T06:18:46.964Z,6.15
2022-12-05T06:21:16.531Z,6.72
2022-12-05T06:23:44.549Z,6.13
2022-12-05T06:26:12.842Z,6.38
2022-12-05T06:28:40.464Z,5.65
2022-12-05T06:31:09.040Z,4.63
2022-12-05T06:33:36.632Z,4.90
2022-12-05T06:36:05.039Z,5.53
2022-12-05T06:38:36.831Z,4.07
2022-12-05T06:41:07.473Z,5.13
2022-12-05T06:43:34.943Z,5.70
2022-12-05T06:46:13.635Z,4.93
2022-12-05T06:48:41.272Z,6.07
2022-12-05T06:51:10.438Z,5.13
2022-12-05T06:53:39.488Z,5.32
2022-12-05T06:56:11.021Z,6.28
2022-12-05T06:58:39.984Z,6.00
2022-12-05T07:01:29.822Z,5.93
2022-12-05T07:03:59.335Z,6.15
2022-12-05T07:06:27.580Z,5.70
2022-12-05T07:08:56.481Z,6.32
2022-12-05T07:11:24.260Z,6.43
2022-12-05T07:13:52.568Z,6.70
2022-12-05T07:16:20.625Z,6.85
2022-12-05T07:18:48.247Z,7.07
2022-12-05T07:21:16.928Z,5.43
2022-12-05T07:23:45.306Z,4.90
2022-12-05T07:26:17.520Z,6.47
2022-12-05T07:28:45.010Z,7.32
2022-12-05T07:31:14.624Z,6.53
2022-12-05T07:33:42.467Z,7.05
2022-12-05T07:36:11.550Z,6.43
2022-12-05T07:38:39.393Z,6.90
2022-12-05T07:41:12.752Z,7.15
2022-12-05T07:43:55.497Z,5.78
2022-12-05T07:46:26.016Z,6.93
2022-12-05T07:48:57.429Z,8.02
2022-12-05T07:51:24.956Z,6.85
2022-12-05T07:53:53.655Z,5.68
2022-12-05T07:56:21.936Z,6.90
2022-12-05T07:58:55.999Z,7.43
2022-12-05T08:01:25.039Z,6.68
2022-12-05T08:03:53.800Z,7.28
2022-12-05T08:06:22.598Z,6.72
2022-12-05T08:08:51.177Z,7.40
2022-12-05T08:11:19.674Z,6.88
2022-12-05T08:13:48.581Z,6.88
2022-12-05T08:16:19.045Z,8.27
2022-12-05T08:18:47.057Z,6.10
2022-12-05T08:21:16.032Z,6.57
2022-12-05T08:23:44.211Z,7.28
2022-12-05T08:26:13.303Z,6.75
2022-12-05T08:28:41.160Z,9.20
2022-12-05T08:31:10.284Z,6.93
2022-12-05T08:33:39.244Z,6.97
2022-12-05T08:36:07.876Z,8.10
2022-12-05T08:38:35.921Z,8.45
2022-12-05T08:41:03.647Z,7.57
2022-12-05T08:43:31.629Z,6.72
2022-12-05T08:45:59.756Z,7.22
2022-12-05T08:48:29.637Z,7.00
2022-12-05T08:50:59.092Z,7.43
2022-12-05T08:53:26.963Z,7.43
2022-12-05T08:55:54.517Z,7.53
2022-12-05T08:58:22.085Z,7.57
2022-12-05T09:00:49.630Z,7.05
2022-12-05T09:03:17.640Z,8.60
2022-12-05T09:05:45.660Z,7.30
2022-12-05T09:08:14.762Z,7.43
2022-12-05T09:10:42.377Z,7.20
2022-12-05T09:13:09.877Z,7.68
2022-12-05T09:15:41.767Z,7.55
2022-12-05T09:18:09.745Z,8.23
2022-12-05T09:20:40.664Z,7.13
2022-12-05T09:23:14.470Z,7.93
2022-12-05T09:25:45.453Z,7.32
2022-12-05T09:28:13.403Z,7.65
2022-12-05T09:30:44.775Z,9.18
2022-12-05T09:33:12.397Z,6.82
2022-12-05T09:35:43.695Z,8.32
2022-12-05T09:38:11.188Z,7.65
2022-12-05T09:40:42.743Z,7.35
2022-12-05T09:43:18.258Z,7.55
2022-12-05T09:45:53.390Z,8.25
2022-12-05T09:48:22.046Z,7.50
2022-12-05T09:50:50.874Z,7.40
2022-12-05T09:53:25.553Z,7.75
2022-12-05T09:55:55.155Z,6.75
2022-12-05T09:58:40.941Z,6.38
2022-12-05T10:01:18.287Z,6.95
2022-12-05T10:03:49.017Z,8.48
2022-12-05T10:06:20.705Z,8.32
2022-12-05T10:09:00.845Z,7.90
2022-12-05T10:11:32.019Z,6.90
2022-12-05T10:14:08.056Z,8.75
2022-12-05T10:16:48.236Z,9.95
2022-12-05T10:19:17.394Z,8.60
2022-12-05T10:21:49.061Z,8.48
2022-12-05T10:24:19.564Z,9.38
2022-12-05T10:26:51.689Z,8.43
2022-12-05T10:29:25.591Z,7.75
2022-12-05T10:34:26.738Z,8.23
2022-12-05T10:36:56.520Z,10.05
2022-12-05T10:39:24.767Z,10.07
2022-12-05T10:41:52.388Z,10.23
2022-12-05T10:44:21.783Z,9.43
2022-12-05T10:46:49.905Z,10.60
2022-12-05T10:49:18.776Z,9.95
2022-12-05T10:51:46.368Z,9.80
2022-12-05T10:54:16.774Z,11.25
2022-12-05T10:56:45.191Z,8.98
2022-12-05T10:59:14.045Z,9.98
2022-12-05T11:01:47.061Z,10.00
2022-12-05T11:04:22.939Z,9.93
2022-12-05T11:06:52.120Z,8.80
2022-12-05T11:09:21.634Z,9.10
2022-12-05T11:11:59.208Z,8.07
2022-12-05T11:14:27.544Z,9.70
2022-12-05T11:16:57.022Z,8.98
2022-12-05T11:19:26.397Z,8.88
2022-12-05T11:21:54.074Z,10.95
2022-12-05T11:24:22.731Z,8.80
2022-12-05T11:26:50.718Z,9.57
2022-12-05T11:29:31.795Z,9.52
2022-12-05T11:32:03.764Z,10.57
2022-12-05T11:34:37.464Z,10.10
2022-12-05T11:37:06.833Z,11.32
2022-12-05T11:39:35.320Z,10.40
2022-12-05T11:42:20.127Z,9.52
2022-12-05T11:45:02.880Z,10.25
2022-12-05T11:47:41.069Z,9.93
2022-12-05T11:50:16.886Z,10.15
2022-12-05T11:52:53.819Z,8.88
2022-12-05T11:55:27.119Z,9.73
2022-12-05T11:58:07.465Z,12.00
2022-12-05T12:00:45.724Z,9.68
2022-12-05T12:03:36.627Z,9.07
2022-12-05T12:06:14.874Z,8.45
2022-12-05T12:08:48.787Z,9.25
2022-12-05T12:13:50.603Z,10.25
2022-12-05T12:16:21.612Z,9.80
2022-12-05T12:18:57.711Z,9.50
2022-12-05T12:21:36.964Z,9.60
2022-12-05T12:24:12.513Z,9.35
2022-12-05T12:26:44.489Z,10.88
2022-12-05T12:29:20.206Z,10.00
2022-12-05T12:31:58.316Z,10.10
2022-12-05T12:34:35.516Z,9.35
2022-12-05T12:37:10.027Z,9.32
2022-12-05T12:39:43.731Z,9.45
2022-12-05T12:42:23.109Z,9.52
2022-12-05T12:45:13.336Z,8.85
2022-12-05T12:47:50.790Z,8.73
2022-12-05T12:50:22.081Z,10.05
2022-12-05T13:03:29.503Z,8.55
2022-12-05T13:06:01.022Z,8.30
2022-12-05T13:08:49.446Z,7.40
2022-12-05T13:11:19.734Z,9.10
2022-12-05T13:16:50.302Z,8.45
2022-12-05T13:22:43.950Z,7.10
2022-12-05T13:25:14.469Z,8.68
2022-12-05T13:27:54.424Z,7.95
2022-12-05T13:30:22.139Z,7.60
2022-12-05T13:32:56.087Z,7.00
2022-12-05T13:35:47.239Z,7.68
2022-12-05T13:38:46.633Z,7.10
2022-12-05T13:41:32.012Z,8.05
2022-12-05T13:44:06.684Z,8.25
2022-12-05T13:46:38.732Z,7.93
2022-12-05T13:49:17.713Z,8.07
2022-12-05T13:51:45.879Z,7.53
2022-12-05T13:54:17.287Z,8.10
2022-12-05T13:56:49.076Z,8.88
2022-12-05T13:59:31.430Z,8.55
2022-12-05T14:02:01.376Z,8.25
2022-12-05T14:04:52.355Z,8.77
2022-12-05T14:07:34.792Z,7.32
2022-12-05T14:10:02.447Z,8.48
2022-12-05T14:12:30.793Z,8.93
2022-12-05T14:15:05.137Z,8.50
2022-12-05T14:17:55.762Z,8.48
2022-12-05T14:21:13.514Z,7.28
2022-12-05T14:24:27.872Z,7.85
2022-12-05T14:27:07.870Z,8.13
2022-12-05T14:29:43.737Z,7.95
2022-12-05T14:32:17.047Z,8.65
2022-12-05T14:34:50.517Z,7.60
2022-12-05T14:37:26.174Z,10.02
2022-12-05T14:39:55.035Z,7.72
2022-12-05T14:42:24.965Z,9.18
2022-12-05T14:44:53.444Z,7.75
2022-12-05T14:47:22.791Z,11.15
2022-12-05T14:49:53.699Z,10.00
2022-12-05T14:52:23.052Z,9.88
2022-12-05T14:54:55.689Z,10.30
2022-12-05T14:57:23.871Z,8.18
2022-12-05T14:59:54.392Z,10.27
2022-12-05T15:02:26.973Z,9.77
2022-12-05T15:05:00.036Z,9.52
2022-12-05T15:07:34.003Z,8.70
2022-12-05T15:10:04.791Z,9.30
2022-12-05T15:12:35.135Z,8.98
2022-12-05T15:15:09.456Z,9.57
2022-12-05T15:17:39.465Z,9.07
2022-12-05T15:20:09.635Z,10.55
2022-12-05T15:22:43.639Z,8.45
2022-12-05T15:25:34.914Z,11.10
2022-12-05T15:28:05.303Z,7.07
2022-12-05T15:30:41.182Z,9.40
2022-12-05T15:33:13.225Z,8.88
2022-12-05T15:35:44.990Z,10.00
2022-12-05T15:38:21.202Z,11.10
2022-12-05T15:40:55.110Z,10.45
2022-12-05T15:43:32.507Z,11.80
2022-12-05T15:46:13.030Z,10.60
2022-12-05T15:48:43.736Z,11.40
2022-12-05T15:51:12.039Z,11.25
2022-12-05T15:53:42.797Z,11.43
2022-12-05T15:56:13.674Z,12.55
2022-12-05T15:58:42.903Z,10.93
2022-12-05T16:01:15.388Z,11.38
2022-12-05T16:03:46.690Z,12.07
2022-12-05T16:06:25.506Z,12.40
2022-12-05T16:08:53.337Z,11.07
2022-12-05T16:11:23.289Z,11.20
2022-12-05T16:14:02.455Z,11.93
2022-12-05T16:16:35.329Z,12.63
2022-12-05T16:19:05.502Z,11.80
2022-12-05T16:21:38.585Z,10.77
2022-12-05T16:26:40.578Z,8.15
2022-12-05T16:29:25.449Z,9.70
2022-12-05T16:31:56.295Z,9.80
2022-12-05T16:34:46.163Z,10.02
2022-12-05T16:37:19.006Z,9.40
2022-12-05T16:39:46.902Z,8.33
2022-12-05T16:42:25.229Z,9.07
2022-12-05T16:45:09.063Z,8.75
2022-12-05T16:48:03.585Z,10.05
2022-12-05T16:50:32.227Z,9.43
2022-12-05T16:53:03.345Z,8.73
2022-12-05T16:55:37.236Z,8.05
2022-12-05T16:58:09.606Z,7.40
2022-12-05T17:00:37.252Z,7.43
2022-12-05T17:03:32.435Z,5.38
2022-12-05T17:05:52.253Z,6.13
2022-12-05T17:08:25.057Z,7.07
2022-12-05T17:10:53.565Z,7.80
2022-12-05T17:13:23.420Z,7.78
2022-12-05T17:15:51.283Z,6.65
2022-12-05T17:18:35.699Z,9.18
2022-12-05T17:23:40.057Z,7.40
2022-12-05T17:26:13.561Z,7.35
2022-12-05T17:28:43.292Z,7.05
2022-12-05T17:31:14.795Z,7.05
2022-12-05T17:33:43.326Z,7.97
2022-12-05T17:36:12.909Z,7.88
2022-12-05T17:38:40.444Z,7.10
2022-12-05T17:41:08.313Z,7.32
2022-12-05T17:43:37.796Z,8.10
2022-12-05T17:46:07.894Z,7.93
2022-12-05T17:48:35.625Z,7.43
2022-12-05T17:51:06.681Z,7.80
2022-12-05T17:53:34.590Z,7.18
2022-12-05T17:56:02.182Z,6.55
2022-12-05T17:58:33.770Z,6.53
2022-12-05T18:01:02.634Z,6.82
2022-12-05T18:03:31.757Z,6.97
2022-12-05T18:06:00.065Z,6.50
2022-12-05T18:08:28.904Z,6.88
2022-12-05T18:10:57.488Z,6.68
2022-12-05T18:13:37.231Z,6.65
2022-12-05T18:16:06.297Z,6.38
2022-12-05T18:18:35.178Z,7.38
2022-12-05T18:21:06.400Z,7.35
2022-12-05T18:23:36.581Z,6.10
2022-12-05T18:26:20.122Z,6.38
2022-12-05T18:28:48.507Z,5.82
2022-12-05T18:34:35.143Z,6.97
2022-12-05T18:37:05.422Z,6.28
2022-12-05T18:39:34.165Z,5.93
2022-12-05T18:42:03.075Z,5.65
2022-12-05T18:44:31.068Z,5.78
2022-12-05T18:47:01.459Z,6.82
2022-12-05T18:49:30.633Z,6.55
2022-12-05T18:52:02.135Z,6.35
2022-12-05T18:54:32.670Z,5.75
2022-12-05T18:57:00.726Z,6.70
2022-12-05T18:59:30.954Z,5.32
2022-12-05T19:02:01.066Z,6.78
2022-12-05T19:04:30.077Z,7.00
2022-12-05T19:06:58.856Z,5.10
2022-12-05T19:09:27.427Z,6.57
2022-12-05T19:11:56.992Z,5.93
2022-12-05T19:14:25.868Z,5.95
2022-12-05T19:16:59.869Z,5.18
2022-12-05T19:19:28.298Z,6.78
2022-12-05T19:21:58.879Z,6.47
2022-12-05T19:24:26.866Z,5.60
2022-12-05T19:26:54.381Z,5.47
2022-12-05T19:29:21.857Z,7.35
2022-12-05T19:31:49.664Z,6.30
2022-12-05T19:34:17.481Z,5.88
2022-12-05T19:36:51.748Z,6.40
2022-12-05T19:39:21.435Z,6.88
2022-12-05T19:41:49.241Z,6.32
2022-12-05T19:44:16.911Z,6.80
2022-12-05T19:46:56.763Z,5.10
2022-12-05T19:49:26.664Z,5.68
2022-12-05T19:51:54.188Z,6.70
2022-12-05T19:54:26.801Z,5.65
2022-12-05T19:56:58.390Z,7.80
2022-12-05T19:59:39.924Z,5.80
2022-12-05T20:02:14.390Z,5.93
2022-12-05T20:04:43.123Z,5.43
2022-12-05T20:07:13.335Z,6.55
2022-12-05T20:09:42.522Z,6.15
2022-12-05T20:15:15.900Z,7.30
2022-12-05T20:17:51.627Z,5.70
2022-12-05T20:20:35.909Z,5.38
2022-12-05T20:23:04.755Z,6.00
2022-12-05T20:25:36.209Z,7.57
2022-12-05T20:28:05.754Z,6.15
2022-12-05T20:30:36.388Z,6.03
2022-12-05T20:33:03.979Z,7.40
2022-12-05T20:35:31.564Z,6.75
2022-12-05T20:37:59.566Z,6.68
2022-12-05T20:40:27.122Z,6.72
2022-12-05T20:42:56.305Z,7.25
2022-12-05T20:45:27.609Z,4.65
2022-12-05T20:47:56.716Z,7.72
2022-12-05T20:50:30.294Z,7.90
2022-12-05T20:53:00.549Z,6.47
2022-12-05T20:55:28.812Z,8.07
2022-12-05T20:58:02.377Z,7.07
2022-12-05T21:00:37.768Z,6.03
2022-12-05T21:03:05.512Z,6.88
2022-12-05T21:05:35.543Z,6.63
2022-12-05T21:08:03.198Z,8.02
2022-12-05T21:10:31.397Z,7.97
2022-12-05T21:13:03.898Z,6.65
2022-12-05T21:15:31.636Z,6.30
2022-12-05T21:18:04.964Z,7.55
2022-12-05T21:20:41.935Z,7.15
2022-12-05T21:23:09.914Z,5.90
2022-12-05T21:25:38.044Z,7.00
2022-12-05T21:28:11.762Z,6.93
2022-12-05T21:33:11.134Z,7.80
2022-12-05T21:35:40.273Z,6.10
2022-12-05T21:38:08.770Z,6.90
2022-12-05T21:40:39.343Z,6.20
2022-12-05T21:43:08.738Z,8.02
2022-12-05T21:45:43.334Z,6.03
2022-12-05T21:48:13.804Z,5.60
2022-12-05T21:50:45.625Z,7.40
2022-12-05T21:53:13.743Z,8.02
2022-12-05T21:55:41.898Z,7.55
2022-12-05T21:58:11.064Z,6.57
2022-12-05T22:00:45.073Z,6.25
2022-12-05T22:03:14.889Z,6.97
2022-12-05T22:05:43.912Z,7.15
2022-12-05T22:08:12.119Z,7.00
2022-12-05T22:10:41.064Z,6.05
2022-12-05T22:13:09.834Z,6.50
2022-12-05T22:15:43.200Z,5.95
2022-12-05T22:18:11.109Z,7.65
2022-12-05T22:20:38.641Z,6.00
2022-12-05T22:23:06.235Z,5.72
2022-12-05T22:25:33.810Z,6.97
2022-12-05T22:28:01.307Z,5.32
2022-12-05T22:30:28.824Z,6.50
2022-12-05T22:32:57.866Z,6.95
2022-12-05T22:35:25.369Z,7.35
2022-12-05T22:37:54.780Z,5.68
2022-12-05T22:40:22.284Z,7.47
2022-12-05T22:42:49.839Z,7.53
2022-12-05T22:45:17.409Z,4.90
2022-12-05T22:47:44.993Z,7.03
2022-12-05T22:50:13.980Z,6.88
2022-12-05T22:52:41.506Z,5.03
2022-12-05T22:55:10.457Z,7.35
2022-12-05T22:57:38.099Z,6.03
2022-12-05T23:00:06.619Z,7.78
2022-12-05T23:02:44.515Z,6.75
2022-12-05T23:05:12.746Z,5.68
2022-12-05T23:07:46.469Z,8.32
2022-12-05T23:12:42.720Z,5.32
2022-12-05T23:15:11.433Z,6.35
2022-12-05T23:17:46.149Z,7.10
2022-12-05T23:20:17.616Z,7.03
2022-12-05T23:22:46.745Z,7.07
2022-12-05T23:25:14.349Z,8.57
2022-12-05T23:27:42.121Z,6.18
2022-12-05T23:30:10.210Z,5.20
2022-12-05T23:32:37.677Z,7.07
2022-12-05T23:35:05.531Z,7.13
2022-12-05T23:37:33.090Z,6.35
2022-12-05T23:40:02.082Z,8.20
2022-12-05T23:42:29.759Z,6.70
2022-12-05T23:44:57.257Z,9.07
2022-12-05T23:47:24.803Z,9.32
2022-12-05T23:49:52.322Z,8.80
2022-12-05T23:52:19.818Z,8.43
2022-12-05T23:54:47.341Z,7.75
2022-12-05T23:57:21.034Z,9.52
